createdAt,value
2023-03-15T00:00:10.437Z,5.30
2023-03-15T00:05:15.576Z,5.00
2023-03-15T00:10:17.734Z,4.90
2023-03-15T00:15:19.485Z,6.20
2023-03-15T00:20:21.709Z,5.20
2023-03-15T00:25:23.728Z,5.20
2023-03-15T00:30:25.888Z,5.20
2023-03-15T00:40:30.322Z,5.10
2023-03-15T00:45:33.142Z,5.10
2023-03-15T00:50:35.164Z,7.70
2023-03-15T00:55:37.252Z,7.50
2023-03-15T01:00:39.132Z,5.90
2023-03-15T01:05:41.462Z,5.20
2023-03-15T01:10:43.334Z,5.20
2023-03-15T01:15:47.942Z,5.20
2023-03-15T01:20:50.044Z,5.20
2023-03-15T01:25:51.875Z,5.00
2023-03-15T01:30:54.121Z,5.00
2023-03-15T01:36:04.302Z,5.00
2023-03-15T01:41:06.503Z,4.90
2023-03-15T01:46:35.033Z,4.80
2023-03-15T01:51:44.566Z,4.50
2023-03-15T01:56:53.073Z,4.60
2023-03-15T02:01:56.416Z,4.60
2023-03-15T02:07:02.138Z,4.80
2023-03-15T02:12:05.228Z,4.90
2023-03-15T02:17:07.297Z,4.70
2023-03-15T02:22:36.686Z,4.50
2023-03-15T02:27:39.794Z,4.80
2023-03-15T02:32:41.862Z,4.70
2023-03-15T02:37:46.017Z,4.70
2023-03-15T02:42:52.205Z,4.70
2023-03-15T02:47:54.717Z,4.70
2023-03-15T02:52:56.717Z,4.70
2023-03-15T02:57:59.616Z,4.40
2023-03-15T03:03:01.454Z,4.40
2023-03-15T03:08:03.506Z,4.30
2023-03-15T03:13:05.227Z,4.50
2023-03-15T03:23:09.542Z,4.80
2023-03-15T03:28:11.772Z,4.80
2023-03-15T03:33:14.265Z,4.70
2023-03-15T03:38:17.423Z,4.80
2023-03-15T03:43:19.073Z,4.80
2023-03-15T03:48:20.909Z,4.70
2023-03-15T03:53:23.094Z,4.70
2023-03-15T03:58:25.446Z,4.80
2023-03-15T04:03:28.110Z,4.80
2023-03-15T04:08:29.898Z,4.60
2023-03-15T04:13:31.949Z,4.50
2023-03-15T04:18:34.049Z,5.40
2023-03-15T04:23:36.097Z,4.60
2023-03-15T04:28:38.199Z,3.90
2023-03-15T04:33:42.822Z,2.00
2023-03-15T04:38:48.057Z,4.20
2023-03-15T04:43:50.030Z,4.20
2023-03-15T04:48:52.004Z,3.80
2023-03-15T04:53:53.782Z,3.70
2023-03-15T04:58:55.773Z,3.80
2023-03-15T05:04:00.766Z,3.80
2023-03-15T05:09:04.070Z,3.90
2023-03-15T05:14:05.861Z,3.80
2023-03-15T05:19:11.307Z,3.90
2023-03-15T05:24:14.736Z,4.10
2023-03-15T05:29:17.219Z,4.20
2023-03-15T05:34:20.075Z,4.20
2023-03-15T05:39:23.173Z,4.10
2023-03-15T05:44:25.215Z,4.20
2023-03-15T05:49:27.089Z,4.20
2023-03-15T05:54:28.867Z,4.10
2023-03-15T05:59:31.416Z,4.10
2023-03-15T06:04:33.446Z,4.10
2023-03-15T06:09:35.314Z,4.00
2023-03-15T06:14:37.354Z,4.10
2023-03-15T06:19:39.098Z,4.10
2023-03-15T06:24:41.540Z,4.20
2023-03-15T06:29:43.529Z,4.20
2023-03-15T06:34:45.239Z,4.30
2023-03-15T06:39:47.306Z,4.50
2023-03-15T06:44:51.161Z,4.50
2023-03-15T06:49:54.438Z,4.20
2023-03-15T06:54:56.340Z,4.40
2023-03-15T06:59:58.154Z,4.30
2023-03-15T07:04:59.881Z,4.20
2023-03-15T07:10:02.089Z,4.50
2023-03-15T07:15:04.669Z,4.60
2023-03-15T07:20:07.441Z,4.90
2023-03-15T07:25:12.253Z,4.30
2023-03-15T07:30:14.511Z,4.90
2023-03-15T07:35:18.268Z,5.10
2023-03-15T07:40:20.526Z,5.30
2023-03-15T07:45:27.021Z,5.50
2023-03-15T07:55:35.791Z,5.70
2023-03-15T08:00:37.544Z,6.00
2023-03-15T08:10:43.624Z,5.70
2023-03-15T08:15:47.333Z,5.50
2023-03-15T08:20:49.298Z,5.40
2023-03-15T08:25:51.178Z,6.10
2023-03-15T08:30:53.244Z,5.70
2023-03-15T08:35:55.314Z,6.30
2023-03-15T08:40:57.872Z,6.40
2023-03-15T08:46:01.491Z,6.60
2023-03-15T08:51:05.792Z,6.90
2023-03-15T08:56:07.770Z,7.70
2023-03-15T09:01:12.303Z,7.60
2023-03-15T09:06:14.448Z,9.60
2023-03-15T09:11:16.299Z,7.80
2023-03-15T09:16:18.395Z,8.30
2023-03-15T09:26:23.201Z,8.50
2023-03-15T09:31:25.196Z,8.00
2023-03-15T09:36:27.124Z,8.20
2023-03-15T09:41:43.343Z,7.70
2023-03-15T09:46:53.459Z,7.80
2023-03-15T09:52:00.750Z,7.40
2023-03-15T09:57:14.965Z,7.30
2023-03-15T10:02:29.760Z,7.90
2023-03-15T10:07:32.844Z,7.90
2023-03-15T10:12:41.702Z,7.40
2023-03-15T10:17:58.454Z,7.40
2023-03-15T10:23:08.011Z,7.70
2023-03-15T10:28:31.302Z,9.80
2023-03-15T10:33:38.431Z,8.20
2023-03-15T10:38:41.850Z,9.40
2023-03-15T10:44:04.352Z,8.50
2023-03-15T10:49:12.106Z,8.00
2023-03-15T10:54:13.881Z,8.40
2023-03-15T10:59:19.025Z,8.00
2023-03-15T11:04:34.205Z,8.20
2023-03-15T11:09:53.657Z,9.90
2023-03-15T11:15:03.033Z,9.00
2023-03-15T11:20:39.203Z,9.20
2023-03-15T11:25:40.970Z,8.20
2023-03-15T11:30:43.758Z,8.20
2023-03-15T11:35:49.901Z,7.70
2023-03-15T11:40:56.932Z,6.30
2023-03-15T11:46:09.010Z,6.50
2023-03-15T11:51:12.670Z,6.10
2023-03-15T11:56:44.766Z,6.70
2023-03-15T12:01:52.823Z,6.20
2023-03-15T12:06:56.944Z,6.20
2023-03-15T12:12:21.933Z,6.20
2023-03-15T12:17:29.577Z,6.10
2023-03-15T12:22:32.826Z,6.00
2023-03-15T12:27:40.106Z,6.10
2023-03-15T12:32:50.757Z,6.20
2023-03-15T12:37:53.827Z,5.90
2023-03-15T12:42:57.606Z,6.20
2023-03-15T12:53:05.129Z,6.40
2023-03-15T12:58:12.853Z,6.10
2023-03-15T13:03:19.804Z,6.30
2023-03-15T13:08:24.706Z,6.00
2023-03-15T13:13:41.193Z,6.30
2023-03-15T13:19:05.500Z,6.20
2023-03-15T13:24:16.452Z,7.30
2023-03-15T13:29:30.809Z,6.30
2023-03-15T13:34:34.263Z,6.40
2023-03-15T13:39:36.166Z,7.40
2023-03-15T13:44:38.561Z,8.80
2023-03-15T13:54:44.368Z,10.80
2023-03-15T13:59:53.568Z,9.80
2023-03-15T14:05:04.016Z,11.90
2023-03-15T14:10:35.338Z,11.50
2023-03-15T14:15:41.890Z,9.10
2023-03-15T14:20:47.683Z,8.20
2023-03-15T14:26:02.374Z,8.20
2023-03-15T14:31:04.395Z,7.60
2023-03-15T14:36:24.253Z,7.80
2023-03-15T14:41:31.405Z,7.80
2023-03-15T14:46:33.426Z,10.10
2023-03-15T14:51:35.458Z,7.40
2023-03-15T14:56:38.041Z,7.30
2023-03-15T15:01:42.453Z,7.00
2023-03-15T15:11:54.548Z,7.00
2023-03-15T15:16:57.032Z,8.50
2023-03-15T15:37:12.060Z,7.40
2023-03-15T15:52:18.841Z,7.00
2023-03-15T15:57:22.401Z,6.90
2023-03-15T16:02:25.123Z,6.70
2023-03-15T16:12:29.783Z,7.00
2023-03-15T16:17:31.662Z,7.00
2023-03-15T16:22:34.130Z,6.80
2023-03-15T16:27:36.305Z,8.50
2023-03-15T16:32:44.472Z,6.60
2023-03-15T16:37:47.201Z,8.40
2023-03-15T16:43:15.996Z,6.60
2023-03-15T16:48:18.064Z,6.70
2023-03-15T16:53:20.124Z,7.40
2023-03-15T16:58:21.907Z,6.60
2023-03-15T17:03:23.748Z,10.40
2023-03-15T17:08:25.670Z,6.40
2023-03-15T17:13:30.164Z,6.40
2023-03-15T17:18:33.468Z,8.20
2023-03-15T17:23:36.389Z,6.50
2023-03-15T17:33:40.764Z,6.10
2023-03-15T17:38:43.815Z,5.90
2023-03-15T17:43:46.238Z,5.90
2023-03-15T17:48:49.256Z,5.80
2023-03-15T17:53:51.502Z,5.70
2023-03-15T17:58:53.789Z,5.70
2023-03-15T18:03:56.412Z,5.50
2023-03-15T18:08:58.476Z,5.40
2023-03-15T18:19:04.477Z,5.30
2023-03-15T18:24:06.606Z,5.30
2023-03-15T18:29:08.527Z,5.20
2023-03-15T18:34:15.251Z,5.10
2023-03-15T18:44:19.600Z,5.00
2023-03-15T18:49:21.698Z,4.90
2023-03-15T18:54:24.301Z,4.80
2023-03-15T18:59:26.832Z,4.70
2023-03-15T19:04:28.798Z,4.60
2023-03-15T19:09:30.599Z,5.20
2023-03-15T19:14:32.887Z,4.70
2023-03-15T19:29:41.044Z,4.50
2023-03-15T19:34:44.435Z,4.70
2023-03-15T19:39:46.649Z,4.60
2023-03-15T19:44:48.471Z,4.70
2023-03-15T19:49:50.816Z,4.70
2023-03-15T19:54:53.088Z,4.70
2023-03-15T19:59:55.045Z,4.60
2023-03-15T20:04:56.903Z,4.60
2023-03-15T20:20:13.483Z,4.50
2023-03-15T20:25:17.159Z,4.30
2023-03-15T20:30:21.125Z,4.40
2023-03-15T20:35:23.140Z,4.30
2023-03-15T20:40:26.035Z,4.20
2023-03-15T20:45:28.185Z,4.10
2023-03-15T20:50:30.227Z,4.20
2023-03-15T20:55:32.094Z,4.10
2023-03-15T21:00:34.152Z,4.20
2023-03-15T21:05:36.843Z,4.20
2023-03-15T21:10:39.354Z,4.10
2023-03-15T21:15:45.993Z,7.70
2023-03-15T21:20:59.501Z,4.00
2023-03-15T21:26:05.994Z,4.10
2023-03-15T21:31:08.570Z,4.20
2023-03-15T21:36:10.924Z,7.20
2023-03-15T21:41:13.055Z,4.10
2023-03-15T21:46:15.423Z,4.20
2023-03-15T21:51:17.523Z,4.00
2023-03-15T21:56:19.503Z,4.00
2023-03-15T22:01:25.084Z,3.90
2023-03-15T22:06:26.977Z,7.00
2023-03-15T22:11:28.735Z,4.00
2023-03-15T22:16:33.704Z,6.30
2023-03-15T22:21:35.564Z,3.90
2023-03-15T22:26:37.634Z,3.90
2023-03-15T22:31:39.382Z,3.90
2023-03-15T22:36:43.173Z,3.80
2023-03-15T22:41:45.232Z,3.70
2023-03-15T22:51:49.542Z,3.90
2023-03-15T22:56:51.480Z,4.00
2023-03-15T23:01:53.332Z,3.50
2023-03-15T23:06:56.083Z,3.40
2023-03-15T23:11:57.818Z,3.40
2023-03-15T23:16:59.796Z,3.60
2023-03-15T23:22:06.919Z,3.40
2023-03-15T23:27:09.131Z,3.40
2023-03-15T23:32:12.090Z,3.10
2023-03-15T23:37:16.931Z,3.40
2023-03-15T23:42:18.773Z,3.30
2023-03-15T23:47:22.560Z,3.30
2023-03-15T23:52:25.831Z,2.80
2023-03-15T23:57:28.073Z,2.70
